createdAt,value
2018-04-18T00:00:05.142Z,975.08
2018-04-18T00:15:05.247Z,975.44
2018-04-18T00:30:04.964Z,975.49
2018-04-18T00:45:04.541Z,975.9
2018-04-18T01:00:05.247Z,975.95
2018-04-18T01:15:05.320Z,976.31
2018-04-18T01:30:05.170Z,976.52
2018-04-18T01:45:04.882Z,976.61
2018-04-18T02:00:05.017Z,976.99
2018-04-18T02:15:05.110Z,969.91
2018-04-18T02:30:05.031Z,970.05
2018-04-18T02:45:04.651Z,970.35
2018-04-18T03:00:05.786Z,970.56
2018-04-18T03:15:05.132Z,970.75
2018-04-18T03:30:05.252Z,970.91
2018-04-18T03:45:05.341Z,971.16
2018-04-18T04:00:05.123Z,971.43
2018-04-18T04:15:04.612Z,971.48
2018-04-18T04:30:04.727Z,971.56
2018-04-18T04:45:06.053Z,971.75
2018-04-18T05:00:06.463Z,971.56
2018-04-18T05:15:05.308Z,971.35
2018-04-18T05:30:05.099Z,970.51
2018-04-18T05:45:04.751Z,977.1
2018-04-18T06:00:05.114Z,976.06
2018-04-18T06:15:04.773Z,974.84
2018-04-18T06:30:05.558Z,973.42
2018-04-18T06:45:05.295Z,971.98
2018-04-18T07:00:04.771Z,977.95
2018-04-18T07:15:04.864Z,975.48
2018-04-18T07:30:08.759Z,976.36
2018-04-18T07:45:05.316Z,971.88
2018-04-18T08:00:04.863Z,973.36
2018-04-18T08:15:05.198Z,974.12
2018-04-18T08:30:05.325Z,970.81
2018-04-18T08:45:05.350Z,975.68
2018-04-18T09:00:05.554Z,975.65
2018-04-18T09:15:10.308Z,974.77
2018-04-18T09:30:04.494Z,975.77
2018-04-18T09:45:05.840Z,972.27
2018-04-18T10:00:05.005Z,976.96
2018-04-18T10:15:04.808Z,971.74
2018-04-18T10:30:04.495Z,973.42
2018-04-18T10:45:04.900Z,974.72
2018-04-18T11:00:04.835Z,975.42
2018-04-18T11:15:04.855Z,975.64
2018-04-18T11:30:05.303Z,975.94
2018-04-18T11:45:04.820Z,976.25
2018-04-18T12:00:05.765Z,975.66
2018-04-18T12:15:04.688Z,976.08
2018-04-18T12:30:04.827Z,975.83
2018-04-18T12:45:05.522Z,975.55
2018-04-18T13:00:04.725Z,975.5
2018-04-18T13:15:04.698Z,975.36
2018-04-18T13:30:05.472Z,975.31
2018-04-18T13:45:05.477Z,975.08
2018-04-18T14:00:05.417Z,975.25
2018-04-18T14:15:05.059Z,974.78
2018-04-18T14:30:05.469Z,974.47
2018-04-18T14:45:04.481Z,974.53
2018-04-18T15:00:05.014Z,974.36
2018-04-18T15:15:04.813Z,974.36
2018-04-18T15:30:05.010Z,974.39
2018-04-18T15:45:05.638Z,974.42
2018-04-18T16:00:05.094Z,974.53
2018-04-18T16:15:04.646Z,974.81
2018-04-18T16:30:05.391Z,974.89
2018-04-18T16:45:04.949Z,975.22
2018-04-18T17:00:04.471Z,975.64
2018-04-18T17:15:04.954Z,968.73
2018-04-18T17:30:04.618Z,968.95
2018-04-18T17:45:05.165Z,969.33
2018-04-18T18:00:05.108Z,969.64
2018-04-18T18:15:04.557Z,970.32
2018-04-18T18:30:04.820Z,970.93
2018-04-18T18:45:05.327Z,971.28
2018-04-18T19:00:05.508Z,971.69
2018-04-18T19:15:05.554Z,972.27
2018-04-18T19:30:04.864Z,972.71
2018-04-18T19:45:05.352Z,973.12
2018-04-18T20:00:04.897Z,973.62
2018-04-18T20:15:05.293Z,974
2018-04-18T20:30:04.984Z,974
2018-04-18T20:45:04.749Z,974.38
2018-04-18T21:00:04.805Z,974.74
2018-04-18T21:15:04.838Z,975.1
2018-04-18T21:30:04.574Z,975.45
2018-04-18T21:45:05.328Z,968.87
2018-04-18T22:00:04.863Z,969.42
2018-04-18T22:15:04.459Z,970.1
2018-04-18T22:30:05.252Z,970.26
2018-04-18T22:45:05.093Z,970.78
2018-04-18T23:00:09.882Z,971.35
2018-04-18T23:15:05.565Z,971.35
2018-04-18T23:30:04.986Z,971.84
2018-04-18T23:45:04.742Z,972.33
